createdAt,value
2017-11-25T00:00:34.442Z,82.70
2017-11-25T00:01:34.468Z,71.90
2017-11-25T00:02:34.454Z,71.30
2017-11-25T00:03:34.471Z,77.20
2017-11-25T00:04:34.479Z,72.10
2017-11-25T00:05:34.492Z,73.30
2017-11-25T00:06:34.502Z,75.40
2017-11-25T00:07:34.510Z,79.90
2017-11-25T00:08:34.509Z,72.30
2017-11-25T00:09:34.530Z,74.10
2017-11-25T00:10:34.542Z,71.60
2017-11-25T00:11:34.543Z,70.10
2017-11-25T00:12:34.549Z,67.50
2017-11-25T00:13:34.553Z,69.10
2017-11-25T00:14:34.561Z,70.00
2017-11-25T00:15:34.574Z,69.60
2017-11-25T00:16:34.591Z,67.40
2017-11-25T00:17:34.599Z,69.50
2017-11-25T00:18:35.259Z,66.00
2017-11-25T00:19:34.607Z,72.50
2017-11-25T00:20:34.619Z,64.90
2017-11-25T00:21:34.620Z,75.80
2017-11-25T00:22:34.629Z,70.30
2017-11-25T00:23:34.642Z,73.70
2017-11-25T00:24:34.643Z,69.50
2017-11-25T00:25:34.661Z,71.60
2017-11-25T00:26:34.664Z,69.60
2017-11-25T00:27:34.684Z,69.00
2017-11-25T00:28:34.684Z,67.20
2017-11-25T00:29:34.692Z,74.30
2017-11-25T00:30:34.699Z,76.50
2017-11-25T00:31:34.702Z,76.40
2017-11-25T00:32:34.711Z,77.70
2017-11-25T00:33:34.728Z,76.70
2017-11-25T00:34:34.729Z,75.10
2017-11-25T00:35:34.741Z,85.10
2017-11-25T00:36:34.749Z,83.80
2017-11-25T00:37:35.501Z,78.60
2017-11-25T00:38:34.774Z,76.30
2017-11-25T00:39:34.772Z,73.80
2017-11-25T00:40:34.783Z,78.60
2017-11-25T00:41:34.787Z,89.90
2017-11-25T00:42:34.794Z,78.50
2017-11-25T00:43:34.808Z,73.70
2017-11-25T00:44:34.817Z,80.60
2017-11-25T00:45:34.821Z,71.50
2017-11-25T00:46:34.831Z,77.10
2017-11-25T00:47:34.834Z,80.10
2017-11-25T00:48:34.850Z,85.90
2017-11-25T00:49:34.868Z,82.80
2017-11-25T00:50:34.866Z,79.40
2017-11-25T00:51:34.872Z,82.50
2017-11-25T00:52:34.891Z,74.10
2017-11-25T00:53:34.887Z,77.70
2017-11-25T00:54:34.946Z,81.20
2017-11-25T00:55:34.911Z,89.20
2017-11-25T00:56:34.910Z,85.00
2017-11-25T00:57:34.914Z,83.80
2017-11-25T00:58:34.945Z,88.60
2017-11-25T00:59:34.940Z,83.40
2017-11-25T01:00:34.943Z,93.50
2017-11-25T01:01:34.958Z,78.90
2017-11-25T01:02:34.967Z,90.40
2017-11-25T01:03:34.973Z,86.30
2017-11-25T01:04:34.982Z,84.00
2017-11-25T01:05:35.501Z,87.30
2017-11-25T01:06:34.997Z,81.50
2017-11-25T01:07:35.016Z,85.30
2017-11-25T01:08:35.030Z,90.00
2017-11-25T01:09:35.023Z,91.10
2017-11-25T01:10:35.031Z,80.30
2017-11-25T01:11:35.036Z,96.10
2017-11-25T01:12:35.043Z,98.00
2017-11-25T01:16:35.084Z,83.60
2017-11-25T01:17:35.090Z,77.20
2017-11-25T01:18:35.102Z,83.60
2017-11-25T01:19:35.269Z,85.40
2017-11-25T01:20:35.208Z,77.20
2017-11-25T01:21:35.630Z,87.20
2017-11-25T01:22:35.136Z,83.70
2017-11-25T01:24:35.161Z,101.40
2017-11-25T01:25:35.161Z,78.50
2017-11-25T01:26:35.170Z,75.50
2017-11-25T01:27:35.177Z,72.80
2017-11-25T01:28:35.204Z,81.20
2017-11-25T01:29:35.196Z,80.20
2017-11-25T01:30:35.203Z,70.70
2017-11-25T01:31:35.235Z,74.90
2017-11-25T01:32:35.237Z,71.10
2017-11-25T01:33:35.231Z,69.20
2017-11-25T01:34:35.236Z,65.40
2017-11-25T01:35:35.247Z,70.60
2017-11-25T01:36:35.261Z,70.90
2017-11-25T01:37:35.388Z,73.00
2017-11-25T01:38:35.300Z,68.10
2017-11-25T01:39:35.484Z,62.80
2017-11-25T01:40:35.286Z,67.60
2017-11-25T01:41:35.298Z,67.50
2017-11-25T01:42:35.481Z,73.20
2017-11-25T01:43:35.311Z,78.10
2017-11-25T01:44:35.320Z,72.80
2017-11-25T01:45:35.330Z,71.00
2017-11-25T01:46:35.341Z,78.60
2017-11-25T01:47:35.353Z,74.10
2017-11-25T01:48:35.353Z,78.20
2017-11-25T01:49:35.365Z,72.80
2017-11-25T01:50:35.378Z,70.10
2017-11-25T01:51:35.384Z,73.90
2017-11-25T01:52:35.390Z,71.80
2017-11-25T01:53:35.460Z,75.90
2017-11-25T01:54:35.401Z,72.40
2017-11-25T01:55:35.411Z,70.60
2017-11-25T01:56:35.426Z,71.80
2017-11-25T01:57:35.429Z,74.30
2017-11-25T01:58:35.438Z,75.40
2017-11-25T01:59:35.463Z,77.20
2017-11-25T02:00:35.461Z,80.90
2017-11-25T02:01:35.465Z,72.90
2017-11-25T02:02:35.492Z,76.90
2017-11-25T02:03:35.482Z,70.40
2017-11-25T02:04:35.487Z,85.70
2017-11-25T02:05:35.507Z,77.10
2017-11-25T02:06:35.510Z,71.10
2017-11-25T02:07:35.514Z,70.30
2017-11-25T02:08:35.527Z,66.30
2017-11-25T02:09:35.531Z,72.90
2017-11-25T02:10:35.545Z,73.50
2017-11-25T02:11:35.546Z,77.90
2017-11-25T02:12:35.557Z,78.60
2017-11-25T02:13:35.573Z,78.30
2017-11-25T02:14:35.575Z,76.00
2017-11-25T02:15:35.586Z,73.00
2017-11-25T02:16:35.652Z,93.20
2017-11-25T02:17:35.600Z,74.60
2017-11-25T02:18:35.607Z,77.00
2017-11-25T02:19:35.621Z,80.60
2017-11-25T02:20:35.626Z,77.90
2017-11-25T02:21:35.632Z,67.50
2017-11-25T02:22:35.646Z,75.00
2017-11-25T02:23:35.651Z,73.60
2017-11-25T02:24:35.662Z,76.00
2017-11-25T02:25:35.662Z,74.90
2017-11-25T02:26:35.678Z,74.20
2017-11-25T02:27:35.681Z,78.40
2017-11-25T02:28:35.692Z,77.10
2017-11-25T02:29:35.698Z,82.20
2017-11-25T02:30:35.721Z,76.40
2017-11-25T02:31:35.718Z,75.90
2017-11-25T02:32:35.727Z,72.70
2017-11-25T02:33:35.738Z,69.90
2017-11-25T02:34:35.755Z,78.00
2017-11-25T02:35:35.754Z,79.50
2017-11-25T02:36:35.758Z,76.80
2017-11-25T02:37:35.771Z,77.90
2017-11-25T02:38:35.779Z,82.10
2017-11-25T02:39:35.805Z,74.30
2017-11-25T02:40:35.797Z,74.10
2017-11-25T02:41:35.801Z,72.90
2017-11-25T02:42:35.831Z,74.80
2017-11-25T02:43:35.822Z,72.50
2017-11-25T02:44:35.840Z,70.50
2017-11-25T02:45:35.838Z,79.20
2017-11-25T02:46:35.852Z,76.80
2017-11-25T02:47:35.856Z,77.50
2017-11-25T02:48:35.864Z,72.70
2017-11-25T02:49:35.880Z,69.50
2017-11-25T02:50:35.879Z,77.80
2017-11-25T02:51:35.886Z,73.30
2017-11-25T02:52:35.895Z,73.20
2017-11-25T02:53:35.902Z,75.30
2017-11-25T02:54:35.922Z,81.10
2017-11-25T02:55:35.921Z,75.90
2017-11-25T02:56:35.927Z,81.70
2017-11-25T02:57:35.947Z,75.00
2017-11-25T02:58:35.943Z,78.60
2017-11-25T02:59:35.961Z,77.60
2017-11-25T03:00:35.965Z,83.70
2017-11-25T03:01:35.970Z,77.40
2017-11-25T03:02:35.982Z,79.50
2017-11-25T03:03:35.992Z,83.40
2017-11-25T03:04:36.007Z,109.60
2017-11-25T03:05:36.005Z,90.80
2017-11-25T03:06:36.013Z,83.70
2017-11-25T03:07:36.022Z,76.30
2017-11-25T03:08:36.031Z,85.50
2017-11-25T03:09:36.039Z,94.00
2017-11-25T03:10:36.048Z,81.90
2017-11-25T03:11:36.053Z,84.20
2017-11-25T03:12:36.059Z,84.80
2017-11-25T03:13:36.070Z,80.50
2017-11-25T03:14:36.074Z,82.30
2017-11-25T03:15:36.102Z,82.50
2017-11-25T03:16:36.101Z,76.30
2017-11-25T03:17:36.107Z,80.30
2017-11-25T03:18:36.117Z,85.10
2017-11-25T03:19:36.123Z,82.40
2017-11-25T03:20:36.131Z,78.70
2017-11-25T03:21:36.131Z,80.60
2017-11-25T03:22:36.148Z,78.40
2017-11-25T03:23:36.157Z,85.60
2017-11-25T03:24:36.169Z,81.70
2017-11-25T03:25:36.171Z,74.20
2017-11-25T03:26:36.178Z,84.40
2017-11-25T03:27:36.184Z,82.90
2017-11-25T03:28:36.203Z,72.10
2017-11-25T03:29:36.203Z,74.10
2017-11-25T03:30:36.232Z,70.40
2017-11-25T03:31:36.233Z,71.80
2017-11-25T03:32:36.269Z,69.60
2017-11-25T03:33:36.236Z,71.40
2017-11-25T03:34:36.249Z,66.40
2017-11-25T03:35:36.253Z,65.30
2017-11-25T03:36:36.262Z,65.20
2017-11-25T03:37:36.266Z,65.40
2017-11-25T03:38:36.277Z,61.60
2017-11-25T03:39:36.295Z,60.40
2017-11-25T03:40:36.295Z,55.80
2017-11-25T03:41:36.298Z,60.70
2017-11-25T03:42:36.320Z,62.50
2017-11-25T03:43:36.319Z,56.60
2017-11-25T03:44:36.340Z,52.70
2017-11-25T03:45:36.337Z,46.70
2017-11-25T03:46:36.357Z,43.10
2017-11-25T03:47:36.356Z,43.00
2017-11-25T03:48:36.361Z,44.10
2017-11-25T03:49:36.373Z,40.40
2017-11-25T03:50:36.372Z,43.90
2017-11-25T03:51:36.385Z,43.20
2017-11-25T03:52:37.022Z,44.40
2017-11-25T03:53:36.397Z,41.70
2017-11-25T03:54:36.416Z,40.50
2017-11-25T03:55:36.427Z,44.40
2017-11-25T03:56:36.429Z,40.00
2017-11-25T03:57:36.436Z,41.60
2017-11-25T03:58:36.445Z,40.30
2017-11-25T03:59:36.455Z,43.60
2017-11-25T04:00:36.461Z,42.00
2017-11-25T04:01:36.472Z,41.70
2017-11-25T04:02:36.475Z,41.50
2017-11-25T04:03:36.501Z,43.10
2017-11-25T04:04:36.495Z,39.90
2017-11-25T04:05:36.557Z,44.40
2017-11-25T04:06:36.520Z,38.80
2017-11-25T04:07:36.529Z,39.90
2017-11-25T04:08:36.546Z,37.90
2017-11-25T04:09:36.542Z,41.70
2017-11-25T04:10:36.551Z,38.30
2017-11-25T04:11:36.556Z,40.70
2017-11-25T04:12:36.628Z,39.10
2017-11-25T04:13:36.569Z,36.00
2017-11-25T04:14:36.580Z,38.60
2017-11-25T04:15:36.587Z,36.20
2017-11-25T04:16:36.591Z,38.20
2017-11-25T04:17:36.601Z,39.60
2017-11-25T04:18:36.608Z,36.60
2017-11-25T04:19:36.623Z,36.20
2017-11-25T04:20:36.634Z,35.80
2017-11-25T04:21:36.640Z,35.60
2017-11-25T04:22:36.652Z,38.30
2017-11-25T04:23:36.652Z,36.80
2017-11-25T04:24:36.661Z,40.80
2017-11-25T04:25:36.669Z,42.80
2017-11-25T04:26:36.679Z,42.90
2017-11-25T04:27:36.682Z,38.40
2017-11-25T04:28:36.689Z,36.00
2017-11-25T04:29:36.705Z,37.10
2017-11-25T04:30:36.713Z,37.00
2017-11-25T04:31:36.717Z,38.30
2017-11-25T04:32:36.726Z,35.90
2017-11-25T04:33:36.732Z,38.30
2017-11-25T04:34:36.741Z,38.30
2017-11-25T04:35:36.756Z,39.00
2017-11-25T04:36:36.760Z,39.30
2017-11-25T04:37:36.774Z,33.60
2017-11-25T04:38:36.782Z,35.40
2017-11-25T04:39:36.783Z,38.90
2017-11-25T04:40:36.873Z,36.50
2017-11-25T04:41:36.801Z,40.20
2017-11-25T04:42:36.812Z,37.20
2017-11-25T04:43:36.830Z,39.40
2017-11-25T04:44:36.832Z,39.70
2017-11-25T04:45:36.834Z,35.60
2017-11-25T04:46:36.840Z,34.40
2017-11-25T04:47:36.851Z,37.70
2017-11-25T04:48:36.859Z,35.80
2017-11-25T04:49:36.870Z,38.10
2017-11-25T04:50:36.871Z,39.20
2017-11-25T04:51:36.879Z,41.50
2017-11-25T04:52:36.899Z,40.60
2017-11-25T04:53:36.909Z,39.00
2017-11-25T04:54:36.918Z,35.50
2017-11-25T04:55:36.926Z,37.20
2017-11-25T04:56:36.929Z,39.40
2017-11-25T04:57:36.933Z,41.20
2017-11-25T04:58:36.947Z,39.90
2017-11-25T04:59:36.950Z,38.80
2017-11-25T05:00:36.961Z,39.80
2017-11-25T05:01:36.966Z,35.00
2017-11-25T05:02:36.982Z,36.70
2017-11-25T05:03:36.986Z,33.70
2017-11-25T05:04:36.989Z,35.30
2017-11-25T05:05:37.003Z,38.90
2017-11-25T05:06:37.006Z,39.20
2017-11-25T05:07:37.022Z,33.50
2017-11-25T05:08:37.024Z,50.70
2017-11-25T05:09:37.033Z,37.00
2017-11-25T05:10:37.039Z,36.20
2017-11-25T05:11:37.061Z,38.50
2017-11-25T05:12:37.055Z,36.20
2017-11-25T05:13:37.067Z,37.40
2017-11-25T05:14:37.073Z,37.00
2017-11-25T05:15:37.083Z,36.00
2017-11-25T05:16:37.093Z,34.70
2017-11-25T05:17:37.126Z,35.40
2017-11-25T05:18:37.144Z,35.90
2017-11-25T05:19:37.115Z,40.70
2017-11-25T05:20:37.126Z,38.00
2017-11-25T05:21:37.179Z,36.80
2017-11-25T05:22:37.139Z,39.60
2017-11-25T05:23:37.157Z,38.90
2017-11-25T05:24:37.156Z,37.20
2017-11-25T05:25:37.165Z,40.90
2017-11-25T05:26:37.176Z,39.10
2017-11-25T05:27:37.181Z,40.30
2017-11-25T05:28:37.188Z,42.30
2017-11-25T05:29:37.194Z,43.60
2017-11-25T05:30:37.234Z,42.80
2017-11-25T05:31:37.212Z,39.20
2017-11-25T05:32:37.221Z,35.60
2017-11-25T05:33:37.238Z,38.20
2017-11-25T05:34:37.237Z,38.00
2017-11-25T05:35:37.247Z,36.30
2017-11-25T05:36:37.256Z,36.90
2017-11-25T05:37:37.263Z,33.60
2017-11-25T05:38:37.273Z,34.70
2017-11-25T05:39:37.276Z,32.40
2017-11-25T05:40:37.285Z,31.10
2017-11-25T05:41:37.294Z,30.50
2017-11-25T05:42:37.298Z,28.70
2017-11-25T05:43:37.312Z,33.80
2017-11-25T05:44:37.328Z,30.40
2017-11-25T05:45:37.327Z,30.80
2017-11-25T05:46:37.334Z,31.80
2017-11-25T05:47:37.340Z,27.10
2017-11-25T05:48:37.352Z,27.20
2017-11-25T05:49:37.383Z,26.60
2017-11-25T05:50:37.366Z,26.90
2017-11-25T05:51:37.378Z,23.80
2017-11-25T05:52:37.383Z,25.10
2017-11-25T05:53:37.396Z,24.10
2017-11-25T05:54:37.401Z,23.70
2017-11-25T05:55:37.412Z,26.40
2017-11-25T05:56:37.416Z,25.60
2017-11-25T05:57:37.454Z,24.30
2017-11-25T05:58:37.430Z,21.80
2017-11-25T05:59:37.444Z,22.00
2017-11-25T06:00:37.450Z,22.30
2017-11-25T06:01:37.453Z,24.10
2017-11-25T06:02:37.459Z,21.50
2017-11-25T06:03:37.472Z,24.20
2017-11-25T06:04:37.479Z,23.00
2017-11-25T06:05:37.486Z,24.70
2017-11-25T06:06:37.503Z,21.00
2017-11-25T06:07:37.502Z,21.40
2017-11-25T06:08:37.510Z,21.70
2017-11-25T06:09:37.617Z,23.20
2017-11-25T06:10:37.582Z,21.20
2017-11-25T06:11:37.539Z,21.70
2017-11-25T06:12:37.550Z,17.50
2017-11-25T06:13:37.550Z,17.60
2017-11-25T06:14:37.561Z,16.80
2017-11-25T06:15:37.572Z,16.70
2017-11-25T06:16:37.576Z,18.40
2017-11-25T06:17:37.586Z,16.00
2017-11-25T06:18:37.594Z,17.90
2017-11-25T06:19:37.597Z,16.10
2017-11-25T06:20:37.606Z,16.70
2017-11-25T06:21:37.615Z,13.30
2017-11-25T06:22:37.621Z,17.70
2017-11-25T06:23:37.629Z,17.10
2017-11-25T06:24:37.642Z,13.10
2017-11-25T06:25:37.652Z,14.80
2017-11-25T06:26:37.655Z,13.40
2017-11-25T06:27:37.678Z,12.10
2017-11-25T06:28:37.669Z,12.70
2017-11-25T06:29:37.680Z,12.90
2017-11-25T06:30:37.683Z,14.70
2017-11-25T06:31:37.697Z,13.10
2017-11-25T06:32:37.740Z,10.50
2017-11-25T06:33:37.706Z,12.20
2017-11-25T06:34:37.729Z,9.90
2017-11-25T06:35:37.729Z,9.10
2017-11-25T06:36:37.735Z,10.70
2017-11-25T06:37:37.740Z,9.40
2017-11-25T06:38:37.754Z,8.90
2017-11-25T06:39:37.760Z,9.70
2017-11-25T06:40:37.770Z,10.60
2017-11-25T06:41:37.774Z,10.40
2017-11-25T06:42:37.787Z,11.20
2017-11-25T06:43:37.795Z,12.00
2017-11-25T06:44:37.797Z,12.20
2017-11-25T06:45:37.808Z,8.40
2017-11-25T06:46:37.808Z,6.90
2017-11-25T06:47:37.819Z,7.80
2017-11-25T06:48:37.827Z,11.10
2017-11-25T06:49:37.833Z,10.00
2017-11-25T06:50:37.845Z,8.40
2017-11-25T06:51:37.851Z,8.60
2017-11-25T06:52:37.862Z,8.80
2017-11-25T06:53:37.867Z,5.80
2017-11-25T06:54:37.872Z,6.70
2017-11-25T06:55:37.884Z,6.70
2017-11-25T06:56:37.896Z,8.20
2017-11-25T06:57:37.905Z,6.40
2017-11-25T06:58:37.909Z,6.10
2017-11-25T06:59:37.914Z,6.30
2017-11-25T07:00:37.923Z,11.10
2017-11-25T07:01:37.932Z,9.10
2017-11-25T07:02:37.944Z,10.50
2017-11-25T07:03:37.948Z,6.10
2017-11-25T07:04:37.965Z,7.30
2017-11-25T07:05:37.970Z,4.80
2017-11-25T07:06:37.968Z,5.10
2017-11-25T07:07:37.983Z,5.10
2017-11-25T07:08:37.987Z,4.80
2017-11-25T07:09:37.992Z,7.50
2017-11-25T07:10:38.006Z,6.90
2017-11-25T07:11:38.009Z,14.60
2017-11-25T07:12:38.025Z,6.40
2017-11-25T07:13:38.023Z,4.80
2017-11-25T07:14:38.031Z,4.20
2017-11-25T07:15:38.044Z,3.20
2017-11-25T07:16:38.053Z,3.20
2017-11-25T07:17:38.056Z,4.80
2017-11-25T07:18:38.060Z,3.80
2017-11-25T07:19:38.136Z,3.80
2017-11-25T07:20:38.151Z,3.40
2017-11-25T07:21:38.097Z,4.70
2017-11-25T07:22:38.096Z,5.60
2017-11-25T07:23:38.106Z,4.80
2017-11-25T07:24:38.110Z,2.80
2017-11-25T07:25:38.116Z,3.30
2017-11-25T07:26:39.052Z,5.40
2017-11-25T07:27:38.145Z,3.30
2017-11-25T07:28:38.142Z,3.70
2017-11-25T07:29:38.154Z,4.00
2017-11-25T07:30:38.161Z,6.70
2017-11-25T07:31:38.165Z,2.70
2017-11-25T07:32:38.171Z,3.60
2017-11-25T07:33:38.182Z,5.70
2017-11-25T07:34:38.193Z,5.20
2017-11-25T07:35:38.195Z,4.30
2017-11-25T07:36:38.204Z,5.50
2017-11-25T07:37:38.211Z,3.50
2017-11-25T07:38:38.226Z,8.50
2017-11-25T07:39:38.234Z,5.00
2017-11-25T07:40:38.251Z,4.50
2017-11-25T07:41:38.253Z,5.20
2017-11-25T07:42:38.259Z,3.80
2017-11-25T07:43:38.260Z,8.60
2017-11-25T07:44:38.273Z,7.50
2017-11-25T07:45:38.277Z,7.90
2017-11-25T07:46:38.290Z,8.30
2017-11-25T07:47:38.302Z,7.80
2017-11-25T07:48:38.320Z,8.60
2017-11-25T07:49:38.312Z,7.90
2017-11-25T07:50:38.317Z,8.50
2017-11-25T07:51:38.324Z,7.40
2017-11-25T07:52:38.332Z,9.80
2017-11-25T07:53:38.338Z,8.50
2017-11-25T07:54:38.356Z,8.30
2017-11-25T07:55:38.359Z,10.90
2017-11-25T07:56:38.364Z,14.10
2017-11-25T07:57:38.370Z,10.60
2017-11-25T07:58:38.434Z,10.10
2017-11-25T07:59:38.384Z,11.00
2017-11-25T08:00:38.396Z,9.10
2017-11-25T08:01:38.407Z,11.00
2017-11-25T08:02:38.407Z,11.90
2017-11-25T08:03:38.417Z,12.90
2017-11-25T08:04:39.053Z,10.20
2017-11-25T08:05:38.442Z,10.40
2017-11-25T08:06:38.441Z,12.90
2017-11-25T08:07:38.450Z,11.80
2017-11-25T08:08:38.460Z,11.90
2017-11-25T08:09:38.461Z,13.50
2017-11-25T08:10:38.468Z,11.10
2017-11-25T08:11:38.492Z,18.00
2017-11-25T08:12:38.504Z,15.30
2017-11-25T08:13:38.493Z,11.70
2017-11-25T08:14:38.505Z,11.90
2017-11-25T08:15:38.511Z,14.80
2017-11-25T08:16:38.524Z,11.50
2017-11-25T08:17:38.523Z,12.20
2017-11-25T08:18:38.535Z,12.30
2017-11-25T08:19:38.545Z,15.00
2017-11-25T08:20:38.560Z,11.50
2017-11-25T08:21:38.553Z,11.80
2017-11-25T08:22:38.566Z,13.10
2017-11-25T08:23:38.573Z,16.20
2017-11-25T08:24:38.594Z,17.10
2017-11-25T08:25:38.585Z,15.20
2017-11-25T08:26:38.594Z,14.30
2017-11-25T08:27:38.598Z,14.70
2017-11-25T08:28:38.611Z,14.70
2017-11-25T08:29:38.621Z,14.80
2017-11-25T08:30:38.637Z,13.90
2017-11-25T08:31:38.636Z,14.30
2017-11-25T08:32:38.638Z,17.00
2017-11-25T08:33:38.649Z,17.20
2017-11-25T08:34:38.661Z,15.20
2017-11-25T08:35:38.663Z,15.40
2017-11-25T08:36:38.671Z,12.50
2017-11-25T08:37:38.681Z,14.90
2017-11-25T08:38:38.692Z,16.30
2017-11-25T08:39:38.696Z,15.90
2017-11-25T08:40:38.706Z,15.70
2017-11-25T08:41:38.720Z,15.80
2017-11-25T08:42:38.719Z,10.50
2017-11-25T08:43:38.751Z,11.90
2017-11-25T08:44:38.734Z,11.10
2017-11-25T08:45:38.741Z,12.80
2017-11-25T08:46:38.758Z,12.90
2017-11-25T08:47:38.766Z,10.30
2017-11-25T08:48:38.765Z,13.30
2017-11-25T08:49:38.843Z,15.00
2017-11-25T08:50:38.786Z,19.20
2017-11-25T08:51:38.803Z,13.00
2017-11-25T08:52:38.803Z,15.10
2017-11-25T08:53:38.803Z,15.70
2017-11-25T08:54:38.822Z,17.50
2017-11-25T08:55:38.829Z,15.80
2017-11-25T08:56:38.836Z,15.80
2017-11-25T08:57:38.838Z,16.80
2017-11-25T08:58:38.857Z,17.80
2017-11-25T08:59:38.862Z,21.80
2017-11-25T09:00:38.953Z,21.40
2017-11-25T09:01:38.925Z,20.80
2017-11-25T09:02:38.884Z,26.10
2017-11-25T09:03:38.894Z,22.80
2017-11-25T09:04:38.900Z,22.90
2017-11-25T09:05:38.910Z,20.20
2017-11-25T09:06:38.916Z,22.70
2017-11-25T09:07:38.926Z,24.50
2017-11-25T09:08:38.943Z,23.00
2017-11-25T09:09:38.934Z,22.80
2017-11-25T09:10:39.186Z,21.30
2017-11-25T09:11:39.248Z,20.80
2017-11-25T09:12:38.965Z,21.50
2017-11-25T09:13:38.970Z,26.20
2017-11-25T09:14:39.645Z,21.70
2017-11-25T09:15:38.983Z,24.50
2017-11-25T09:16:38.991Z,20.90
2017-11-25T09:17:39.004Z,25.30
2017-11-25T09:18:39.016Z,27.50
2017-11-25T09:19:39.021Z,22.20
2017-11-25T09:20:39.027Z,24.60
2017-11-25T09:21:39.043Z,23.20
2017-11-25T09:22:39.045Z,28.00
2017-11-25T09:23:39.056Z,22.20
2017-11-25T09:24:40.056Z,23.90
2017-11-25T09:25:39.073Z,24.40
2017-11-25T09:26:39.560Z,18.90
2017-11-25T09:27:39.095Z,28.40
2017-11-25T09:28:39.098Z,26.90
2017-11-25T09:29:39.104Z,24.30
2017-11-25T09:30:39.114Z,23.60
2017-11-25T09:31:39.127Z,21.60
2017-11-25T09:32:39.137Z,27.10
2017-11-25T09:33:39.143Z,22.90
2017-11-25T09:34:39.149Z,22.20
2017-11-25T09:35:39.159Z,19.80
2017-11-25T09:36:39.160Z,24.50
2017-11-25T09:37:39.192Z,24.20
2017-11-25T09:38:39.179Z,21.50
2017-11-25T09:39:39.181Z,22.60
2017-11-25T09:40:39.194Z,22.70
2017-11-25T09:41:39.205Z,23.10
2017-11-25T09:42:39.207Z,20.00
2017-11-25T09:43:39.508Z,21.80
2017-11-25T09:44:39.229Z,20.90
2017-11-25T09:45:39.237Z,23.10
2017-11-25T09:46:39.249Z,17.40
2017-11-25T09:47:39.256Z,18.90
2017-11-25T09:48:39.266Z,22.50
2017-11-25T09:49:39.269Z,19.00
2017-11-25T09:50:39.296Z,19.40
2017-11-25T09:51:39.288Z,21.20
2017-11-25T09:52:39.300Z,22.20
2017-11-25T09:53:39.317Z,19.70
2017-11-25T09:54:39.315Z,19.60
2017-11-25T09:55:39.330Z,20.30
2017-11-25T09:56:39.338Z,20.50
2017-11-25T09:57:39.338Z,20.30
2017-11-25T09:58:39.342Z,23.00
2017-11-25T09:59:39.356Z,20.90
2017-11-25T10:00:39.473Z,17.90
2017-11-25T10:01:39.376Z,19.60
2017-11-25T10:02:39.387Z,17.10
2017-11-25T10:03:39.383Z,15.30
2017-11-25T10:04:39.656Z,20.30
2017-11-25T10:05:39.435Z,14.80
2017-11-25T10:06:39.417Z,15.10
2017-11-25T10:07:39.430Z,18.60
2017-11-25T10:08:39.430Z,20.40
2017-11-25T10:09:39.436Z,14.30
2017-11-25T10:10:39.544Z,16.10
2017-11-25T10:11:39.470Z,14.80
2017-11-25T10:12:39.514Z,18.40
2017-11-25T10:13:39.492Z,14.00
2017-11-25T10:14:39.483Z,17.60
2017-11-25T10:15:39.557Z,19.80
2017-11-25T10:16:39.507Z,17.60
2017-11-25T10:17:39.508Z,17.10
2017-11-25T10:18:39.715Z,15.30
2017-11-25T10:19:39.529Z,14.40
2017-11-25T10:20:39.535Z,16.10
2017-11-25T10:21:39.541Z,23.20
2017-11-25T10:22:39.548Z,19.30
2017-11-25T10:23:39.560Z,18.80
2017-11-25T10:24:39.582Z,15.40
2017-11-25T10:25:40.074Z,17.90
2017-11-25T10:26:39.601Z,18.00
2017-11-25T10:27:39.598Z,15.40
2017-11-25T10:28:39.610Z,16.10
2017-11-25T10:29:39.610Z,16.60
2017-11-25T10:30:39.613Z,16.70
2017-11-25T10:31:39.634Z,17.70
2017-11-25T10:32:39.766Z,14.20
2017-11-25T10:33:39.702Z,14.90
2017-11-25T10:34:39.654Z,14.20
2017-11-25T10:35:39.666Z,13.90
2017-11-25T10:36:39.670Z,14.50
2017-11-25T10:37:39.694Z,12.20
2017-11-25T10:38:39.697Z,13.10
2017-11-25T10:39:39.692Z,18.70
2017-11-25T10:40:39.708Z,12.40
2017-11-25T10:41:39.716Z,18.90
2017-11-25T10:42:39.736Z,17.20
2017-11-25T10:43:39.731Z,17.60
2017-11-25T10:44:39.750Z,13.20
2017-11-25T10:45:39.750Z,14.20
2017-11-25T10:46:39.761Z,13.70
2017-11-25T10:47:39.807Z,15.90
2017-11-25T10:48:39.849Z,18.10
2017-11-25T10:49:39.796Z,14.70
2017-11-25T10:50:39.804Z,12.20
2017-11-25T10:51:39.805Z,13.30
2017-11-25T10:52:39.809Z,15.90
2017-11-25T10:53:39.853Z,14.50
2017-11-25T10:54:39.831Z,15.10
2017-11-25T10:55:39.844Z,12.90
2017-11-25T10:56:39.849Z,16.20
2017-11-25T10:57:39.861Z,14.70
2017-11-25T10:58:39.864Z,16.50
2017-11-25T10:59:39.891Z,11.80
2017-11-25T11:00:39.889Z,11.50
2017-11-25T11:01:39.893Z,16.20
2017-11-25T11:02:39.903Z,10.90
2017-11-25T11:03:39.913Z,10.90
2017-11-25T11:04:39.930Z,10.60
2017-11-25T11:05:39.936Z,11.50
2017-11-25T11:06:39.953Z,13.70
2017-11-25T11:07:39.951Z,10.50
2017-11-25T11:08:39.964Z,12.30
2017-11-25T11:09:39.968Z,11.00
2017-11-25T11:10:39.982Z,9.80
2017-11-25T11:11:39.993Z,9.00
2017-11-25T11:12:40.003Z,8.40
2017-11-25T11:13:40.010Z,11.90
2017-11-25T11:14:40.026Z,7.30
2017-11-25T11:15:40.034Z,10.20
2017-11-25T11:16:40.047Z,8.80
2017-11-25T11:17:40.056Z,10.10
2017-11-25T11:18:40.078Z,10.00
2017-11-25T11:19:40.079Z,10.90
2017-11-25T11:20:40.100Z,10.00
2017-11-25T11:21:40.115Z,8.90
2017-11-25T11:22:40.122Z,9.60
2017-11-25T11:23:40.128Z,11.90
2017-11-25T11:24:40.149Z,9.30
2017-11-25T11:25:40.149Z,7.40
2017-11-25T11:26:40.164Z,7.50
2017-11-25T11:27:40.196Z,7.50
2017-11-25T11:28:40.181Z,10.90
2017-11-25T11:29:40.190Z,11.20
2017-11-25T11:30:40.216Z,8.40
2017-11-25T11:31:40.219Z,7.10
2017-11-25T11:32:40.232Z,8.90
2017-11-25T11:33:40.239Z,12.10
2017-11-25T11:34:40.274Z,6.50
2017-11-25T11:35:40.270Z,9.30
2017-11-25T11:36:40.282Z,8.80
2017-11-25T11:37:40.293Z,7.70
2017-11-25T11:38:40.316Z,11.00
2017-11-25T11:39:40.314Z,8.90
2017-11-25T11:40:40.329Z,10.10
2017-11-25T11:41:40.338Z,10.50
2017-11-25T11:42:40.361Z,7.00
2017-11-25T11:43:40.365Z,12.80
2017-11-25T11:44:40.381Z,10.30
2017-11-25T11:45:40.390Z,8.40
2017-11-25T11:46:40.450Z,8.30
2017-11-25T11:47:40.424Z,9.30
2017-11-25T11:48:40.431Z,12.20
2017-11-25T11:49:40.438Z,12.80
2017-11-25T11:50:40.449Z,10.10
2017-11-25T11:51:40.464Z,10.40
2017-11-25T11:52:40.480Z,11.90
2017-11-25T11:53:40.492Z,13.00
2017-11-25T11:54:40.512Z,11.40
2017-11-25T11:55:40.520Z,11.60
2017-11-25T11:56:40.534Z,13.40
2017-11-25T11:57:40.548Z,8.90
2017-11-25T11:58:40.569Z,12.20
2017-11-25T11:59:40.576Z,14.50
2017-11-25T12:00:40.590Z,12.40
2017-11-25T12:01:40.640Z,5.00
2017-11-25T12:02:40.618Z,9.40
2017-11-25T12:03:40.639Z,8.80
2017-11-25T12:04:40.649Z,9.20
2017-11-25T12:05:40.670Z,9.40
2017-11-25T12:06:40.676Z,5.70
2017-11-25T12:07:40.698Z,8.30
2017-11-25T12:08:40.712Z,7.40
2017-11-25T12:09:40.767Z,9.20
2017-11-25T12:10:40.737Z,7.60
2017-11-25T12:11:40.753Z,8.00
2017-11-25T12:12:40.776Z,5.80
2017-11-25T12:13:40.791Z,7.30
2017-11-25T12:14:40.798Z,8.00
2017-11-25T12:15:40.802Z,7.80
2017-11-25T12:16:40.823Z,8.60
2017-11-25T12:17:40.836Z,5.70
2017-11-25T12:18:40.851Z,7.60
2017-11-25T12:19:40.862Z,7.80
2017-11-25T12:20:40.879Z,6.40
2017-11-25T12:21:40.897Z,5.90
2017-11-25T12:22:40.901Z,11.60
2017-11-25T12:23:40.909Z,10.10
2017-11-25T12:24:40.929Z,9.50
2017-11-25T12:25:40.950Z,6.80
2017-11-25T12:26:40.959Z,8.10
2017-11-25T12:27:40.964Z,10.90
2017-11-25T12:28:40.976Z,7.70
2017-11-25T12:29:40.986Z,8.70
2017-11-25T12:30:41.006Z,8.50
2017-11-25T12:31:41.016Z,10.80
2017-11-25T12:32:41.028Z,7.50
2017-11-25T12:33:41.039Z,7.10
2017-11-25T12:34:41.053Z,8.60
2017-11-25T12:35:41.061Z,7.60
2017-11-25T12:36:41.077Z,6.50
2017-11-25T12:37:41.091Z,7.50
2017-11-25T12:38:41.096Z,7.30
2017-11-25T12:39:41.123Z,6.40
2017-11-25T12:40:41.123Z,10.00
2017-11-25T12:41:41.204Z,8.30
2017-11-25T12:42:41.153Z,9.00
2017-11-25T12:43:41.156Z,9.90
2017-11-25T12:44:41.179Z,7.80
2017-11-25T12:45:41.176Z,8.30
2017-11-25T12:46:41.189Z,7.60
2017-11-25T12:47:41.195Z,6.60
2017-11-25T12:48:41.209Z,9.10
2017-11-25T12:49:41.216Z,11.60
2017-11-25T12:50:41.236Z,12.80
2017-11-25T12:51:41.240Z,6.20
2017-11-25T12:52:41.265Z,8.70
2017-11-25T12:53:41.269Z,8.30
2017-11-25T12:54:41.279Z,9.90
2017-11-25T12:55:41.287Z,12.80
2017-11-25T12:56:41.332Z,7.60
2017-11-25T12:57:41.311Z,10.10
2017-11-25T12:58:41.327Z,8.50
2017-11-25T12:59:41.330Z,9.70
2017-11-25T13:00:41.339Z,11.40
2017-11-25T13:01:41.360Z,11.90